sensor_id;sensor_type;location;lat;lon;timestamp;P1;durP1;ratioP1;P2;durP2;ratioP2
5811;SDS011;2932;52.400;9.558;2023-01-06T00:02:19;11.67;;;4.40;;
5811;SDS011;2932;52.400;9.558;2023-01-06T00:04:44;13.40;;;4.93;;
5811;SDS011;2932;52.400;9.558;2023-01-06T00:07:10;13.03;;;4.40;;
5811;SDS011;2932;52.400;9.558;2023-01-06T00:09:35;11.37;;;4.33;;
5811;SDS011;2932;52.400;9.558;2023-01-06T00:12:00;12.93;;;4.73;;
5811;SDS011;2932;52.400;9.558;2023-01-06T00:14:27;12.47;;;4.53;;
5811;SDS011;2932;52.400;9.558;2023-01-06T00:16:53;11.40;;;5.43;;
5811;SDS011;2932;52.400;9.558;2023-01-06T00:19:18;11.47;;;5.60;;
5811;SDS011;2932;52.400;9.558;2023-01-06T00:21:44;13.13;;;5.53;;
5811;SDS011;2932;52.400;9.558;2023-01-06T00:24:09;12.20;;;5.07;;
5811;SDS011;2932;52.400;9.558;2023-01-06T00:26:35;14.60;;;5.17;;
5811;SDS011;2932;52.400;9.558;2023-01-06T00:29:01;14.30;;;5.40;;
5811;SDS011;2932;52.400;9.558;2023-01-06T00:31:26;13.87;;;5.80;;
5811;SDS011;2932;52.400;9.558;2023-01-06T00:33:53;10.90;;;5.33;;
5811;SDS011;2932;52.400;9.558;2023-01-06T00:36:20;12.73;;;5.00;;
5811;SDS011;2932;52.400;9.558;2023-01-06T00:38:47;13.40;;;4.90;;
5811;SDS011;2932;52.400;9.558;2023-01-06T00:41:13;11.23;;;4.47;;
5811;SDS011;2932;52.400;9.558;2023-01-06T00:43:57;6.90;;;4.47;;
5811;SDS011;2932;52.400;9.558;2023-01-06T00:46:23;8.93;;;3.83;;
5811;SDS011;2932;52.400;9.558;2023-01-06T00:48:52;5.63;;;4.23;;
5811;SDS011;2932;52.400;9.558;2023-01-06T00:51:18;7.00;;;4.23;;
5811;SDS011;2932;52.400;9.558;2023-01-06T00:53:43;7.27;;;3.70;;
5811;SDS011;2932;52.400;9.558;2023-01-06T00:56:09;7.10;;;3.70;;
5811;SDS011;2932;52.400;9.558;2023-01-06T00:58:34;6.50;;;2.83;;
5811;SDS011;2932;52.400;9.558;2023-01-06T01:01:03;8.37;;;3.23;;
5811;SDS011;2932;52.400;9.558;2023-01-06T01:03:30;5.37;;;3.00;;
5811;SDS011;2932;52.400;9.558;2023-01-06T01:06:00;4.43;;;2.90;;
5811;SDS011;2932;52.400;9.558;2023-01-06T01:08:27;6.70;;;3.10;;
5811;SDS011;2932;52.400;9.558;2023-01-06T01:10:53;7.70;;;3.33;;
5811;SDS011;2932;52.400;9.558;2023-01-06T01:13:19;7.43;;;3.20;;
5811;SDS011;2932;52.400;9.558;2023-01-06T01:15:45;4.33;;;2.60;;
5811;SDS011;2932;52.400;9.558;2023-01-06T01:18:10;6.53;;;2.83;;
5811;SDS011;2932;52.400;9.558;2023-01-06T01:20:35;4.67;;;2.97;;
5811;SDS011;2932;52.400;9.558;2023-01-06T01:23:01;6.50;;;3.10;;
5811;SDS011;2932;52.400;9.558;2023-01-06T01:25:26;4.57;;;2.97;;
5811;SDS011;2932;52.400;9.558;2023-01-06T01:27:51;5.60;;;3.40;;
5811;SDS011;2932;52.400;9.558;2023-01-06T01:30:17;5.10;;;3.43;;
5811;SDS011;2932;52.400;9.558;2023-01-06T01:32:45;4.97;;;3.40;;
5811;SDS011;2932;52.400;9.558;2023-01-06T01:35:10;5.50;;;2.90;;
5811;SDS011;2932;52.400;9.558;2023-01-06T01:37:35;4.80;;;3.30;;
5811;SDS011;2932;52.400;9.558;2023-01-06T01:40:01;4.67;;;3.27;;
5811;SDS011;2932;52.400;9.558;2023-01-06T01:42:26;4.43;;;3.30;;
5811;SDS011;2932;52.400;9.558;2023-01-06T01:44:56;6.30;;;3.10;;
5811;SDS011;2932;52.400;9.558;2023-01-06T01:53:01;5.40;;;3.40;;
5811;SDS011;2932;52.400;9.558;2023-01-06T01:55:31;4.70;;;3.23;;
5811;SDS011;2932;52.400;9.558;2023-01-06T01:57:59;7.67;;;3.57;;
5811;SDS011;2932;52.400;9.558;2023-01-06T02:00:30;5.43;;;3.40;;
5811;SDS011;2932;52.400;9.558;2023-01-06T02:02:56;5.70;;;3.17;;
5811;SDS011;2932;52.400;9.558;2023-01-06T02:05:22;6.37;;;3.53;;
5811;SDS011;2932;52.400;9.558;2023-01-06T02:07:50;5.07;;;3.23;;
5811;SDS011;2932;52.400;9.558;2023-01-06T02:10:17;5.00;;;3.43;;
5811;SDS011;2932;52.400;9.558;2023-01-06T02:12:45;3.97;;;3.23;;
5811;SDS011;2932;52.400;9.558;2023-01-06T02:15:14;6.60;;;3.60;;
5811;SDS011;2932;52.400;9.558;2023-01-06T02:34:30;3.50;;;2.93;;
5811;SDS011;2932;52.400;9.558;2023-01-06T02:37:20;4.00;;;2.80;;
5811;SDS011;2932;52.400;9.558;2023-01-06T02:40:20;4.47;;;3.03;;
5811;SDS011;2932;52.400;9.558;2023-01-06T02:46:07;3.93;;;2.37;;
5811;SDS011;2932;52.400;9.558;2023-01-06T02:48:42;4.20;;;2.33;;
5811;SDS011;2932;52.400;9.558;2023-01-06T02:51:28;4.60;;;2.77;;
5811;SDS011;2932;52.400;9.558;2023-01-06T02:56:56;6.07;;;2.03;;
5811;SDS011;2932;52.400;9.558;2023-01-06T02:59:31;4.63;;;2.40;;
5811;SDS011;2932;52.400;9.558;2023-01-06T03:02:02;3.00;;;2.13;;
5811;SDS011;2932;52.400;9.558;2023-01-06T03:04:30;3.23;;;2.20;;
5811;SDS011;2932;52.400;9.558;2023-01-06T03:06:59;2.17;;;1.90;;
5811;SDS011;2932;52.400;9.558;2023-01-06T03:09:28;4.03;;;1.97;;
5811;SDS011;2932;52.400;9.558;2023-01-06T03:11:59;4.27;;;2.20;;
5811;SDS011;2932;52.400;9.558;2023-01-06T03:14:46;5.60;;;2.20;;
5811;SDS011;2932;52.400;9.558;2023-01-06T03:17:15;4.03;;;1.93;;
5811;SDS011;2932;52.400;9.558;2023-01-06T03:19:41;3.33;;;2.00;;
5811;SDS011;2932;52.400;9.558;2023-01-06T03:22:08;6.07;;;2.23;;
5811;SDS011;2932;52.400;9.558;2023-01-06T03:24:35;2.13;;;2.00;;
5811;SDS011;2932;52.400;9.558;2023-01-06T03:27:02;5.30;;;2.27;;
5811;SDS011;2932;52.400;9.558;2023-01-06T03:29:28;4.50;;;2.30;;
5811;SDS011;2932;52.400;9.558;2023-01-06T03:40:16;4.00;;;2.27;;
5811;SDS011;2932;52.400;9.558;2023-01-06T03:43:04;5.10;;;2.50;;
5811;SDS011;2932;52.400;9.558;2023-01-06T03:45:53;4.30;;;2.30;;
5811;SDS011;2932;52.400;9.558;2023-01-06T03:53:52;4.77;;;2.60;;
5811;SDS011;2932;52.400;9.558;2023-01-06T03:56:47;5.70;;;2.63;;
5811;SDS011;2932;52.400;9.558;2023-01-06T03:59:17;4.17;;;2.43;;
5811;SDS011;2932;52.400;9.558;2023-01-06T04:01:46;4.63;;;2.80;;
5811;SDS011;2932;52.400;9.558;2023-01-06T04:04:12;3.43;;;2.60;;
5811;SDS011;2932;52.400;9.558;2023-01-06T04:06:40;6.70;;;3.07;;
5811;SDS011;2932;52.400;9.558;2023-01-06T04:09:06;3.53;;;2.77;;
5811;SDS011;2932;52.400;9.558;2023-01-06T04:11:31;5.47;;;2.83;;
5811;SDS011;2932;52.400;9.558;2023-01-06T04:14:15;6.20;;;3.47;;
5811;SDS011;2932;52.400;9.558;2023-01-06T04:16:40;4.97;;;3.10;;
5811;SDS011;2932;52.400;9.558;2023-01-06T04:19:05;4.73;;;2.93;;
5811;SDS011;2932;52.400;9.558;2023-01-06T04:21:31;4.17;;;2.77;;
5811;SDS011;2932;52.400;9.558;2023-01-06T04:23:56;5.63;;;3.20;;
5811;SDS011;2932;52.400;9.558;2023-01-06T04:26:21;4.00;;;3.20;;
5811;SDS011;2932;52.400;9.558;2023-01-06T04:28:47;5.17;;;3.50;;
5811;SDS011;2932;52.400;9.558;2023-01-06T04:31:12;5.93;;;3.27;;
5811;SDS011;2932;52.400;9.558;2023-01-06T04:33:37;3.90;;;2.90;;
5811;SDS011;2932;52.400;9.558;2023-01-06T04:36:03;7.50;;;3.40;;
5811;SDS011;2932;52.400;9.558;2023-01-06T04:38:29;6.30;;;3.30;;
5811;SDS011;2932;52.400;9.558;2023-01-06T04:40:54;5.83;;;2.93;;
5811;SDS011;2932;52.400;9.558;2023-01-06T04:43:19;3.90;;;3.00;;
5811;SDS011;2932;52.400;9.558;2023-01-06T04:45:45;5.63;;;2.90;;
5811;SDS011;2932;52.400;9.558;2023-01-06T04:48:11;4.97;;;3.27;;
5811;SDS011;2932;52.400;9.558;2023-01-06T04:50:37;4.10;;;2.60;;
5811;SDS011;2932;52.400;9.558;2023-01-06T04:53:03;4.90;;;2.63;;
5811;SDS011;2932;52.400;9.558;2023-01-06T04:55:29;3.93;;;2.80;;
5811;SDS011;2932;52.400;9.558;2023-01-06T04:57:54;6.17;;;3.13;;
5811;SDS011;2932;52.400;9.558;2023-01-06T05:00:20;3.40;;;2.63;;
5811;SDS011;2932;52.400;9.558;2023-01-06T05:02:46;3.63;;;2.50;;
5811;SDS011;2932;52.400;9.558;2023-01-06T05:05:11;4.57;;;2.67;;
5811;SDS011;2932;52.400;9.558;2023-01-06T05:07:37;5.40;;;2.40;;
5811;SDS011;2932;52.400;9.558;2023-01-06T05:10:03;5.70;;;2.30;;
5811;SDS011;2932;52.400;9.558;2023-01-06T05:12:30;3.93;;;2.10;;
5811;SDS011;2932;52.400;9.558;2023-01-06T05:14:56;4.70;;;2.43;;
5811;SDS011;2932;52.400;9.558;2023-01-06T05:17:21;5.00;;;2.53;;
5811;SDS011;2932;52.400;9.558;2023-01-06T05:19:47;2.77;;;1.97;;
5811;SDS011;2932;52.400;9.558;2023-01-06T05:22:12;3.93;;;2.00;;
5811;SDS011;2932;52.400;9.558;2023-01-06T05:24:37;2.93;;;1.70;;
5811;SDS011;2932;52.400;9.558;2023-01-06T05:27:03;2.97;;;2.47;;
5811;SDS011;2932;52.400;9.558;2023-01-06T05:29:28;1.50;;;1.40;;
5811;SDS011;2932;52.400;9.558;2023-01-06T05:31:54;3.33;;;1.50;;
5811;SDS011;2932;52.400;9.558;2023-01-06T05:34:19;2.97;;;1.73;;
5811;SDS011;2932;52.400;9.558;2023-01-06T05:36:45;3.07;;;1.70;;
5811;SDS011;2932;52.400;9.558;2023-01-06T05:39:10;3.17;;;1.60;;
5811;SDS011;2932;52.400;9.558;2023-01-06T05:41:35;2.37;;;1.30;;
5811;SDS011;2932;52.400;9.558;2023-01-06T05:44:01;2.03;;;1.30;;
5811;SDS011;2932;52.400;9.558;2023-01-06T05:46:26;3.57;;;1.40;;
5811;SDS011;2932;52.400;9.558;2023-01-06T05:48:51;1.50;;;1.10;;
5811;SDS011;2932;52.400;9.558;2023-01-06T05:51:20;5.20;;;1.30;;
5811;SDS011;2932;52.400;9.558;2023-01-06T05:53:46;2.73;;;0.90;;
5811;SDS011;2932;52.400;9.558;2023-01-06T05:56:13;2.37;;;1.17;;
5811;SDS011;2932;52.400;9.558;2023-01-06T05:58:43;3.07;;;0.90;;
5811;SDS011;2932;52.400;9.558;2023-01-06T06:01:14;3.10;;;0.97;;
5811;SDS011;2932;52.400;9.558;2023-01-06T06:03:51;2.73;;;1.07;;
5811;SDS011;2932;52.400;9.558;2023-01-06T06:06:18;2.40;;;1.03;;
5811;SDS011;2932;52.400;9.558;2023-01-06T06:08:44;2.40;;;0.80;;
5811;SDS011;2932;52.400;9.558;2023-01-06T06:11:11;1.47;;;0.83;;
5811;SDS011;2932;52.400;9.558;2023-01-06T06:13:38;2.73;;;1.00;;
5811;SDS011;2932;52.400;9.558;2023-01-06T06:16:09;2.90;;;0.70;;
5811;SDS011;2932;52.400;9.558;2023-01-06T06:18:37;2.83;;;0.70;;
5811;SDS011;2932;52.400;9.558;2023-01-06T06:21:06;1.20;;;1.03;;
5811;SDS011;2932;52.400;9.558;2023-01-06T06:23:33;2.43;;;0.83;;
5811;SDS011;2932;52.400;9.558;2023-01-06T06:25:58;1.60;;;0.50;;
5811;SDS011;2932;52.400;9.558;2023-01-06T06:28:24;1.73;;;0.60;;
5811;SDS011;2932;52.400;9.558;2023-01-06T06:30:49;1.33;;;0.50;;
5811;SDS011;2932;52.400;9.558;2023-01-06T06:33:15;2.83;;;0.60;;
5811;SDS011;2932;52.400;9.558;2023-01-06T06:35:40;1.27;;;0.40;;
5811;SDS011;2932;52.400;9.558;2023-01-06T06:38:05;0.40;;;0.40;;
5811;SDS011;2932;52.400;9.558;2023-01-06T06:40:31;2.20;;;0.40;;
5811;SDS011;2932;52.400;9.558;2023-01-06T06:42:56;1.63;;;0.60;;
5811;SDS011;2932;52.400;9.558;2023-01-06T06:45:21;3.17;;;1.17;;
5811;SDS011;2932;52.400;9.558;2023-01-06T06:47:47;1.07;;;0.70;;
5811;SDS011;2932;52.400;9.558;2023-01-06T06:50:12;1.23;;;0.70;;
5811;SDS011;2932;52.400;9.558;2023-01-06T06:52:37;1.10;;;0.60;;
5811;SDS011;2932;52.400;9.558;2023-01-06T06:55:03;1.10;;;0.47;;
5811;SDS011;2932;52.400;9.558;2023-01-06T06:57:29;2.03;;;0.60;;
5811;SDS011;2932;52.400;9.558;2023-01-06T06:59:54;3.13;;;0.70;;
5811;SDS011;2932;52.400;9.558;2023-01-06T07:02:19;1.60;;;0.70;;
5811;SDS011;2932;52.400;9.558;2023-01-06T07:04:45;3.20;;;0.63;;
5811;SDS011;2932;52.400;9.558;2023-01-06T07:07:10;2.30;;;0.70;;
5811;SDS011;2932;52.400;9.558;2023-01-06T07:09:36;1.90;;;0.63;;
5811;SDS011;2932;52.400;9.558;2023-01-06T07:12:01;2.50;;;0.80;;
5811;SDS011;2932;52.400;9.558;2023-01-06T07:14:27;3.37;;;0.93;;
5811;SDS011;2932;52.400;9.558;2023-01-06T07:16:52;5.40;;;0.77;;
5811;SDS011;2932;52.400;9.558;2023-01-06T07:19:17;1.93;;;0.70;;
5811;SDS011;2932;52.400;9.558;2023-01-06T07:21:43;0.80;;;0.80;;
5811;SDS011;2932;52.400;9.558;2023-01-06T07:24:08;1.97;;;0.70;;
5811;SDS011;2932;52.400;9.558;2023-01-06T07:26:33;1.67;;;0.53;;
5811;SDS011;2932;52.400;9.558;2023-01-06T07:28:59;2.17;;;0.60;;
5811;SDS011;2932;52.400;9.558;2023-01-06T07:31:24;2.40;;;0.60;;
5811;SDS011;2932;52.400;9.558;2023-01-06T07:33:49;1.57;;;0.70;;
5811;SDS011;2932;52.400;9.558;2023-01-06T07:36:16;2.57;;;0.70;;
5811;SDS011;2932;52.400;9.558;2023-01-06T07:38:41;2.10;;;0.40;;
5811;SDS011;2932;52.400;9.558;2023-01-06T07:41:07;2.80;;;1.00;;
5811;SDS011;2932;52.400;9.558;2023-01-06T07:43:32;1.90;;;0.53;;
5811;SDS011;2932;52.400;9.558;2023-01-06T07:45:57;0.50;;;0.40;;
5811;SDS011;2932;52.400;9.558;2023-01-06T07:48:23;2.93;;;0.70;;
5811;SDS011;2932;52.400;9.558;2023-01-06T07:50:48;1.60;;;0.77;;
5811;SDS011;2932;52.400;9.558;2023-01-06T07:53:13;2.17;;;0.70;;
5811;SDS011;2932;52.400;9.558;2023-01-06T07:55:39;1.67;;;0.80;;
5811;SDS011;2932;52.400;9.558;2023-01-06T07:58:05;2.13;;;0.80;;
5811;SDS011;2932;52.400;9.558;2023-01-06T08:00:31;3.03;;;0.80;;
5811;SDS011;2932;52.400;9.558;2023-01-06T08:02:57;2.33;;;0.67;;
5811;SDS011;2932;52.400;9.558;2023-01-06T08:05:26;1.30;;;0.50;;
5811;SDS011;2932;52.400;9.558;2023-01-06T08:07:51;0.80;;;0.60;;
5811;SDS011;2932;52.400;9.558;2023-01-06T08:10:16;3.90;;;0.80;;
5811;SDS011;2932;52.400;9.558;2023-01-06T08:12:42;1.37;;;0.70;;
5811;SDS011;2932;52.400;9.558;2023-01-06T08:15:07;1.00;;;0.50;;
5811;SDS011;2932;52.400;9.558;2023-01-06T08:17:33;1.33;;;0.80;;
5811;SDS011;2932;52.400;9.558;2023-01-06T08:19:58;2.83;;;0.80;;
5811;SDS011;2932;52.400;9.558;2023-01-06T08:22:23;1.47;;;0.70;;
5811;SDS011;2932;52.400;9.558;2023-01-06T08:24:49;3.70;;;0.93;;
5811;SDS011;2932;52.400;9.558;2023-01-06T08:27:14;4.77;;;1.00;;
5811;SDS011;2932;52.400;9.558;2023-01-06T08:29:39;1.67;;;0.70;;
5811;SDS011;2932;52.400;9.558;2023-01-06T08:32:05;0.57;;;0.50;;
5811;SDS011;2932;52.400;9.558;2023-01-06T08:34:30;1.57;;;0.73;;
5811;SDS011;2932;52.400;9.558;2023-01-06T08:36:56;1.67;;;0.80;;
5811;SDS011;2932;52.400;9.558;2023-01-06T08:39:21;2.00;;;0.70;;
5811;SDS011;2932;52.400;9.558;2023-01-06T08:41:46;3.50;;;0.93;;
5811;SDS011;2932;52.400;9.558;2023-01-06T08:44:15;5.67;;;0.80;;
5811;SDS011;2932;52.400;9.558;2023-01-06T08:46:41;0.70;;;0.70;;
5811;SDS011;2932;52.400;9.558;2023-01-06T08:49:06;1.20;;;0.97;;
5811;SDS011;2932;52.400;9.558;2023-01-06T08:51:31;4.57;;;0.80;;
5811;SDS011;2932;52.400;9.558;2023-01-06T08:53:58;1.23;;;0.67;;
5811;SDS011;2932;52.400;9.558;2023-01-06T08:56:25;2.30;;;0.90;;
5811;SDS011;2932;52.400;9.558;2023-01-06T08:58:54;3.77;;;0.87;;
5811;SDS011;2932;52.400;9.558;2023-01-06T09:01:22;1.90;;;0.90;;
5811;SDS011;2932;52.400;9.558;2023-01-06T09:03:50;1.40;;;0.67;;
5811;SDS011;2932;52.400;9.558;2023-01-06T09:06:16;1.13;;;0.70;;
5811;SDS011;2932;52.400;9.558;2023-01-06T09:08:42;1.67;;;0.70;;
5811;SDS011;2932;52.400;9.558;2023-01-06T09:11:08;2.37;;;0.70;;
5811;SDS011;2932;52.400;9.558;2023-01-06T09:13:35;1.20;;;0.80;;
5811;SDS011;2932;52.400;9.558;2023-01-06T09:16:04;1.23;;;0.73;;
5811;SDS011;2932;52.400;9.558;2023-01-06T09:18:34;0.67;;;0.67;;
5811;SDS011;2932;52.400;9.558;2023-01-06T09:21:00;3.77;;;0.73;;
5811;SDS011;2932;52.400;9.558;2023-01-06T09:23:26;1.47;;;0.70;;
5811;SDS011;2932;52.400;9.558;2023-01-06T09:25:53;2.57;;;0.70;;
5811;SDS011;2932;52.400;9.558;2023-01-06T09:28:19;3.20;;;0.90;;
5811;SDS011;2932;52.400;9.558;2023-01-06T09:30:45;1.43;;;0.80;;
5811;SDS011;2932;52.400;9.558;2023-01-06T09:33:10;2.23;;;0.70;;
5811;SDS011;2932;52.400;9.558;2023-01-06T09:35:36;0.70;;;0.50;;
5811;SDS011;2932;52.400;9.558;2023-01-06T09:38:01;0.77;;;0.77;;
5811;SDS011;2932;52.400;9.558;2023-01-06T09:41:02;1.63;;;0.80;;
5811;SDS011;2932;52.400;9.558;2023-01-06T09:45:57;2.23;;;0.80;;
5811;SDS011;2932;52.400;9.558;2023-01-06T09:48:27;1.40;;;1.10;;
5811;SDS011;2932;52.400;9.558;2023-01-06T09:50:59;1.90;;;0.67;;
5811;SDS011;2932;52.400;9.558;2023-01-06T09:53:28;5.47;;;0.73;;
5811;SDS011;2932;52.400;9.558;2023-01-06T09:55:59;2.07;;;0.80;;
5811;SDS011;2932;52.400;9.558;2023-01-06T10:01:02;0.70;;;0.70;;
5811;SDS011;2932;52.400;9.558;2023-01-06T10:03:32;1.53;;;0.90;;
5811;SDS011;2932;52.400;9.558;2023-01-06T10:11:48;2.63;;;0.90;;
5811;SDS011;2932;52.400;9.558;2023-01-06T10:22:23;0.90;;;0.80;;
5811;SDS011;2932;52.400;9.558;2023-01-06T10:27:45;1.03;;;0.80;;
5811;SDS011;2932;52.400;9.558;2023-01-06T10:30:16;2.40;;;0.80;;
5811;SDS011;2932;52.400;9.558;2023-01-06T10:32:42;3.50;;;1.20;;
5811;SDS011;2932;52.400;9.558;2023-01-06T10:35:10;0.97;;;0.90;;
5811;SDS011;2932;52.400;9.558;2023-01-06T10:37:38;2.43;;;1.00;;
5811;SDS011;2932;52.400;9.558;2023-01-06T10:40:27;2.10;;;1.17;;
5811;SDS011;2932;52.400;9.558;2023-01-06T10:43:00;1.63;;;1.30;;
5811;SDS011;2932;52.400;9.558;2023-01-06T10:45:37;1.67;;;0.90;;
5811;SDS011;2932;52.400;9.558;2023-01-06T10:48:06;1.10;;;1.10;;
5811;SDS011;2932;52.400;9.558;2023-01-06T10:50:36;1.80;;;1.03;;
5811;SDS011;2932;52.400;9.558;2023-01-06T10:53:03;1.20;;;1.10;;
5811;SDS011;2932;52.400;9.558;2023-01-06T10:58:18;1.73;;;1.13;;
5811;SDS011;2932;52.400;9.558;2023-01-06T11:03:20;1.20;;;1.10;;
5811;SDS011;2932;52.400;9.558;2023-01-06T11:05:46;2.20;;;1.17;;
5811;SDS011;2932;52.400;9.558;2023-01-06T11:08:12;2.47;;;1.97;;
5811;SDS011;2932;52.400;9.558;2023-01-06T11:13:33;1.60;;;1.50;;
5811;SDS011;2932;52.400;9.558;2023-01-06T11:16:04;1.30;;;1.20;;
5811;SDS011;2932;52.400;9.558;2023-01-06T11:18:32;1.43;;;1.33;;
5811;SDS011;2932;52.400;9.558;2023-01-06T11:23:28;1.70;;;1.50;;
5811;SDS011;2932;52.400;9.558;2023-01-06T11:26:01;1.37;;;1.10;;
5811;SDS011;2932;52.400;9.558;2023-01-06T11:28:35;3.13;;;1.57;;
5811;SDS011;2932;52.400;9.558;2023-01-06T11:31:13;1.20;;;1.20;;
5811;SDS011;2932;52.400;9.558;2023-01-06T11:33:55;3.87;;;1.53;;
5811;SDS011;2932;52.400;9.558;2023-01-06T11:36:22;1.67;;;1.57;;
5811;SDS011;2932;52.400;9.558;2023-01-06T11:41:38;1.40;;;1.30;;
5811;SDS011;2932;52.400;9.558;2023-01-06T11:46:36;1.50;;;1.40;;
5811;SDS011;2932;52.400;9.558;2023-01-06T11:49:12;1.00;;;1.00;;
5811;SDS011;2932;52.400;9.558;2023-01-06T11:54:15;1.23;;;1.10;;
5811;SDS011;2932;52.400;9.558;2023-01-06T11:56:55;1.43;;;1.30;;
5811;SDS011;2932;52.400;9.558;2023-01-06T11:59:22;1.83;;;1.43;;
5811;SDS011;2932;52.400;9.558;2023-01-06T12:01:51;1.57;;;1.47;;
5811;SDS011;2932;52.400;9.558;2023-01-06T12:04:29;1.23;;;1.23;;
5811;SDS011;2932;52.400;9.558;2023-01-06T12:07:02;3.47;;;1.90;;
5811;SDS011;2932;52.400;9.558;2023-01-06T12:09:41;1.40;;;1.20;;
5811;SDS011;2932;52.400;9.558;2023-01-06T12:12:09;0.70;;;0.70;;
5811;SDS011;2932;52.400;9.558;2023-01-06T12:14:38;2.20;;;1.80;;
5811;SDS011;2932;52.400;9.558;2023-01-06T12:22:22;1.20;;;1.20;;
5811;SDS011;2932;52.400;9.558;2023-01-06T12:24:56;1.80;;;1.30;;
5811;SDS011;2932;52.400;9.558;2023-01-06T12:27:30;1.43;;;1.20;;
5811;SDS011;2932;52.400;9.558;2023-01-06T12:30:02;1.20;;;1.10;;
5811;SDS011;2932;52.400;9.558;2023-01-06T12:32:37;0.97;;;0.93;;
5811;SDS011;2932;52.400;9.558;2023-01-06T12:35:07;1.57;;;1.30;;
5811;SDS011;2932;52.400;9.558;2023-01-06T12:37:42;1.27;;;1.17;;
5811;SDS011;2932;52.400;9.558;2023-01-06T12:40:14;1.43;;;1.00;;
5811;SDS011;2932;52.400;9.558;2023-01-06T12:45:33;1.80;;;1.20;;
5811;SDS011;2932;52.400;9.558;2023-01-06T12:48:10;1.30;;;1.20;;
5811;SDS011;2932;52.400;9.558;2023-01-06T12:50:51;1.40;;;1.30;;
5811;SDS011;2932;52.400;9.558;2023-01-06T12:58:20;2.83;;;1.50;;
5811;SDS011;2932;52.400;9.558;2023-01-06T13:01:13;1.37;;;1.13;;
5811;SDS011;2932;52.400;9.558;2023-01-06T13:09:30;0.93;;;0.80;;
5811;SDS011;2932;52.400;9.558;2023-01-06T13:14:45;0.60;;;0.60;;
5811;SDS011;2932;52.400;9.558;2023-01-06T13:19:53;2.80;;;0.57;;
5811;SDS011;2932;52.400;9.558;2023-01-06T13:30:24;1.93;;;1.00;;
5811;SDS011;2932;52.400;9.558;2023-01-06T13:40:35;1.07;;;0.60;;
5811;SDS011;2932;52.400;9.558;2023-01-06T13:45:29;3.10;;;0.63;;
5811;SDS011;2932;52.400;9.558;2023-01-06T13:47:58;2.13;;;0.70;;
5811;SDS011;2932;52.400;9.558;2023-01-06T13:50:25;3.47;;;1.30;;
5811;SDS011;2932;52.400;9.558;2023-01-06T13:52:52;3.93;;;1.40;;
5811;SDS011;2932;52.400;9.558;2023-01-06T13:57:44;1.73;;;0.80;;
5811;SDS011;2932;52.400;9.558;2023-01-06T14:05:00;0.87;;;0.50;;
5811;SDS011;2932;52.400;9.558;2023-01-06T14:07:37;0.87;;;0.67;;
5811;SDS011;2932;52.400;9.558;2023-01-06T14:12:59;2.60;;;0.47;;
5811;SDS011;2932;52.400;9.558;2023-01-06T14:15:28;1.63;;;0.60;;
5811;SDS011;2932;52.400;9.558;2023-01-06T14:17:56;1.40;;;0.70;;
5811;SDS011;2932;52.400;9.558;2023-01-06T14:20:25;1.55;;;0.70;;
5811;SDS011;2932;52.400;9.558;2023-01-06T14:23:00;1.30;;;0.60;;
5811;SDS011;2932;52.400;9.558;2023-01-06T14:25:28;1.38;;;0.55;;
5811;SDS011;2932;52.400;9.558;2023-01-06T14:28:05;2.20;;;0.73;;
5811;SDS011;2932;52.400;9.558;2023-01-06T14:30:33;3.88;;;2.90;;
5811;SDS011;2932;52.400;9.558;2023-01-06T14:38:06;8.55;;;4.40;;
5811;SDS011;2932;52.400;9.558;2023-01-06T14:40:52;25.30;;;12.48;;
5811;SDS011;2932;52.400;9.558;2023-01-06T14:44:11;3.58;;;2.10;;
5811;SDS011;2932;52.400;9.558;2023-01-06T14:46:18;4.28;;;1.75;;
5811;SDS011;2932;52.400;9.558;2023-01-06T14:48:52;2.28;;;0.65;;
5811;SDS011;2932;52.400;9.558;2023-01-06T14:51:21;0.80;;;0.70;;
5811;SDS011;2932;52.400;9.558;2023-01-06T14:53:50;1.63;;;0.60;;
5811;SDS011;2932;52.400;9.558;2023-01-06T14:56:20;0.67;;;0.40;;
5811;SDS011;2932;52.400;9.558;2023-01-06T14:58:49;5.43;;;1.00;;
5811;SDS011;2932;52.400;9.558;2023-01-06T15:01:24;2.80;;;0.70;;
5811;SDS011;2932;52.400;9.558;2023-01-06T15:04:01;2.00;;;0.80;;
5811;SDS011;2932;52.400;9.558;2023-01-06T15:06:28;1.10;;;0.60;;
5811;SDS011;2932;52.400;9.558;2023-01-06T15:08:54;1.50;;;0.80;;
5811;SDS011;2932;52.400;9.558;2023-01-06T15:11:44;1.87;;;0.70;;
5811;SDS011;2932;52.400;9.558;2023-01-06T15:14:25;2.60;;;0.80;;
5811;SDS011;2932;52.400;9.558;2023-01-06T15:16:57;1.23;;;0.83;;
5811;SDS011;2932;52.400;9.558;2023-01-06T15:19:26;1.33;;;0.80;;
5811;SDS011;2932;52.400;9.558;2023-01-06T15:21:52;1.40;;;0.80;;
5811;SDS011;2932;52.400;9.558;2023-01-06T15:24:20;1.27;;;0.67;;
5811;SDS011;2932;52.400;9.558;2023-01-06T15:26:52;1.73;;;0.90;;
5811;SDS011;2932;52.400;9.558;2023-01-06T15:29:20;12.23;;;5.43;;
5811;SDS011;2932;52.400;9.558;2023-01-06T15:31:48;1.87;;;1.37;;
5811;SDS011;2932;52.400;9.558;2023-01-06T15:34:57;1.57;;;0.83;;
5811;SDS011;2932;52.400;9.558;2023-01-06T15:37:07;3.27;;;0.83;;
5811;SDS011;2932;52.400;9.558;2023-01-06T15:39:38;3.40;;;1.50;;
5811;SDS011;2932;52.400;9.558;2023-01-06T15:42:05;3.03;;;1.40;;
5811;SDS011;2932;52.400;9.558;2023-01-06T15:44:32;4.13;;;1.23;;
5811;SDS011;2932;52.400;9.558;2023-01-06T15:49:28;1.90;;;1.33;;
5811;SDS011;2932;52.400;9.558;2023-01-06T15:52:00;2.73;;;1.70;;
5811;SDS011;2932;52.400;9.558;2023-01-06T15:54:30;2.20;;;1.10;;
5811;SDS011;2932;52.400;9.558;2023-01-06T15:56:58;2.47;;;1.60;;
5811;SDS011;2932;52.400;9.558;2023-01-06T15:59:26;7.40;;;2.90;;
5811;SDS011;2932;52.400;9.558;2023-01-06T16:01:52;2.63;;;1.23;;
5811;SDS011;2932;52.400;9.558;2023-01-06T16:04:19;2.23;;;1.23;;
5811;SDS011;2932;52.400;9.558;2023-01-06T16:06:46;2.83;;;1.30;;
5811;SDS011;2932;52.400;9.558;2023-01-06T16:11:52;4.40;;;1.57;;
5811;SDS011;2932;52.400;9.558;2023-01-06T16:14:29;5.63;;;1.23;;
5811;SDS011;2932;52.400;9.558;2023-01-06T16:17:03;2.60;;;1.50;;
5811;SDS011;2932;52.400;9.558;2023-01-06T16:19:32;3.37;;;1.30;;
5811;SDS011;2932;52.400;9.558;2023-01-06T16:22:04;2.47;;;1.50;;
5811;SDS011;2932;52.400;9.558;2023-01-06T16:24:32;3.23;;;1.33;;
5811;SDS011;2932;52.400;9.558;2023-01-06T16:26:59;2.63;;;1.73;;
5811;SDS011;2932;52.400;9.558;2023-01-06T16:29:31;6.23;;;3.10;;
5811;SDS011;2932;52.400;9.558;2023-01-06T16:32:18;5.37;;;3.30;;
5811;SDS011;2932;52.400;9.558;2023-01-06T16:34:50;10.33;;;4.93;;
5811;SDS011;2932;52.400;9.558;2023-01-06T16:37:16;14.77;;;6.50;;
5811;SDS011;2932;52.400;9.558;2023-01-06T16:39:42;9.57;;;4.90;;
5811;SDS011;2932;52.400;9.558;2023-01-06T16:42:18;3.77;;;2.00;;
5811;SDS011;2932;52.400;9.558;2023-01-06T16:47:58;4.30;;;2.00;;
5811;SDS011;2932;52.400;9.558;2023-01-06T16:50:33;4.27;;;2.17;;
5811;SDS011;2932;52.400;9.558;2023-01-06T16:53:17;3.63;;;2.50;;
5811;SDS011;2932;52.400;9.558;2023-01-06T16:55:48;2.60;;;2.40;;
5811;SDS011;2932;52.400;9.558;2023-01-06T16:58:16;5.07;;;3.03;;
5811;SDS011;2932;52.400;9.558;2023-01-06T17:00:44;5.23;;;2.60;;
5811;SDS011;2932;52.400;9.558;2023-01-06T17:03:16;4.63;;;3.10;;
5811;SDS011;2932;52.400;9.558;2023-01-06T17:05:44;6.00;;;2.70;;
5811;SDS011;2932;52.400;9.558;2023-01-06T17:08:10;3.53;;;2.73;;
5811;SDS011;2932;52.400;9.558;2023-01-06T17:10:39;4.13;;;2.50;;
5811;SDS011;2932;52.400;9.558;2023-01-06T17:13:04;2.73;;;2.53;;
5811;SDS011;2932;52.400;9.558;2023-01-06T17:15:58;3.67;;;2.50;;
5811;SDS011;2932;52.400;9.558;2023-01-06T17:18:26;3.27;;;2.60;;
5811;SDS011;2932;52.400;9.558;2023-01-06T17:20:57;3.50;;;2.90;;
5811;SDS011;2932;52.400;9.558;2023-01-06T17:23:41;4.17;;;3.03;;
5811;SDS011;2932;52.400;9.558;2023-01-06T17:26:12;5.70;;;3.07;;
5811;SDS011;2932;52.400;9.558;2023-01-06T17:28:40;4.13;;;2.73;;
5811;SDS011;2932;52.400;9.558;2023-01-06T17:34:11;2.93;;;2.63;;
5811;SDS011;2932;52.400;9.558;2023-01-06T17:36:40;4.03;;;2.73;;
5811;SDS011;2932;52.400;9.558;2023-01-06T17:39:18;5.70;;;2.80;;
5811;SDS011;2932;52.400;9.558;2023-01-06T17:41:44;4.23;;;2.90;;
5811;SDS011;2932;52.400;9.558;2023-01-06T17:44:10;4.40;;;2.83;;
5811;SDS011;2932;52.400;9.558;2023-01-06T17:46:39;4.03;;;2.97;;
5811;SDS011;2932;52.400;9.558;2023-01-06T17:51:39;5.57;;;3.13;;
5811;SDS011;2932;52.400;9.558;2023-01-06T17:54:13;6.50;;;3.93;;
5811;SDS011;2932;52.400;9.558;2023-01-06T17:57:01;5.27;;;3.30;;
5811;SDS011;2932;52.400;9.558;2023-01-06T17:59:39;7.13;;;3.60;;
5811;SDS011;2932;52.400;9.558;2023-01-06T18:02:39;6.00;;;3.90;;